Time;durP1;ratioP1;P1;durP2;ratioP2;P2;SDS_P1;SDS_P2;PMS_P1;PMS_P2;Temp;Humidity;BMP_temperature;BMP_pressure;BME280_temperature;BME280_humidity;BME280_pressure;Samples;Min_cycle;Max_cycle;Signal;HPM_P1;HPM_P2
2022/09/19 00:03:40;;;;;;;0.70;0.20;;;;;;;17.51;85.97;101164.19;21217210;27;20109;-75
2022/09/19 00:13:45;;;;;;;0.63;0.20;;;;;;;17.21;85.88;101122.69;21216063;27;20051;-75
2022/09/19 00:34:08;;;;;;;0.32;0.10;;;;;;;17.43;85.96;101161.25;21215188;27;20100;-75
2022/09/19 00:44:21;;;;;;;0.70;0.30;;;;;;;17.49;86.10;101188.53;21212567;27;20563;-75
2022/09/19 00:54:29;;;;;;;0.10;0.10;;;;;;;17.49;86.15;101201.16;21211990;27;20419;-75
2022/09/19 01:04:34;;;;;;;0.20;0.20;;;;;;;17.44;86.05;101184.50;21211923;27;20043;-75
2022/09/19 01:15:11;;;;;;;0.68;0.28;;;;;;;17.48;86.05;101213.75;21200424;27;20043;-75
2022/09/19 01:25:31;;;;;;;0.68;0.20;;;;;;;17.31;86.17;101192.75;21092404;27;20396;-75
2022/09/19 01:35:37;;;;;;;0.15;0.15;;;;;;;17.36;86.18;101204.00;21196486;27;20482;-74
2022/09/19 01:45:39;;;;;;;0.43;0.10;;;;;;;17.48;86.08;101202.97;21210368;27;20062;-74
2022/09/19 01:55:50;;;;;;;0.10;0.10;;;;;;;17.44;86.00;101211.41;21208705;27;20047;-74
2022/09/19 02:06:07;;;;;;;0.15;0.13;;;;;;;17.47;86.11;101222.78;21225259;27;20035;-75
2022/09/19 02:16:36;;;;;;;0.10;0.10;;;;;;;17.46;86.11;101213.00;21168588;27;20142;-75
2022/09/19 02:26:39;;;;;;;0.10;0.10;;;;;;;17.40;86.25;101208.97;21214521;27;20134;-75
2022/09/19 02:36:52;;;;;;;0.25;0.17;;;;;;;17.39;86.19;101223.41;21223994;27;20077;-75
2022/09/19 02:47:02;;;;;;;1.20;0.30;;;;;;;17.33;86.30;101232.00;21204730;27;20051;-75
2022/09/19 02:57:09;;;;;;;0.10;0.10;;;;;;;17.45;86.07;101254.38;21221361;27;20549;-74
2022/09/19 03:07:13;;;;;;;0.37;0.13;;;;;;;17.46;86.10;101248.00;21203464;27;20051;-74
2022/09/19 03:17:27;;;;;;;0.40;0.20;;;;;;;17.45;86.09;101253.50;21142632;27;20499;-75
2022/09/19 03:27:28;;;;;;;0.10;0.10;;;;;;;17.45;86.22;101262.44;21185506;27;20498;-74
2022/09/19 03:37:34;;;;;;;0.40;0.20;;;;;;;17.27;86.02;101228.97;21217306;27;20043;-74
2022/09/19 03:47:37;;;;;;;0.40;0.30;;;;;;;17.44;86.11;101276.00;21217862;27;20110;-74
2022/09/19 03:57:39;;;;;;;0.52;0.17;;;;;;;17.44;86.06;101260.72;21198852;27;20049;-75
2022/09/19 04:07:41;;;;;;;0.10;0.10;;;;;;;17.44;86.19;101284.09;21214689;27;20039;-75
2022/09/19 04:17:43;;;;;;;0.40;0.30;;;;;;;17.35;86.17;101272.25;21167804;27;20069;-74
2022/09/19 04:27:50;;;;;;;0.25;0.20;;;;;;;17.35;86.41;101280.31;21213802;27;20050;-75
2022/09/19 04:37:52;;;;;;;0.40;0.27;;;;;;;17.43;85.98;101295.84;21196427;27;20043;-75
2022/09/19 04:47:55;;;;;;;0.30;0.20;;;;;;;17.43;86.06;101309.28;21195783;27;20071;-74
2022/09/19 04:57:57;;;;;;;0.47;0.22;;;;;;;17.39;86.11;101322.16;21211954;27;20047;-75
2022/09/19 05:07:59;;;;;;;0.10;0.10;;;;;;;17.42;86.09;101332.69;21212052;27;20100;-75
2022/09/19 05:18:01;;;;;;;0.73;0.30;;;;;;;17.42;86.03;101338.06;21144083;27;20137;-75
2022/09/19 05:28:07;;;;;;;1.13;0.20;;;;;;;17.42;86.13;101356.91;21194848;27;20051;-75
2022/09/19 05:38:10;;;;;;;1.85;0.55;;;;;;;17.42;86.10;101351.50;21211125;27;20495;-75
2022/09/19 05:48:41;;;;;;;0.45;0.30;;;;;;;17.41;86.16;101347.13;21218467;27;20043;-72
2022/09/19 05:58:42;;;;;;;0.98;0.17;;;;;;;17.40;86.06;101354.31;21225308;27;20134;-72
2022/09/19 06:08:45;;;;;;;0.98;0.38;;;;;;;17.40;86.07;101367.78;21180158;27;20051;-72
2022/09/19 06:18:49;;;;;;;0.10;0.10;;;;;;;17.34;86.21;101372.81;21180468;27;20134;-72
2022/09/19 06:28:51;;;;;;;0.40;0.20;;;;;;;17.39;86.06;101392.97;21222509;27;20043;-72
2022/09/19 06:38:53;;;;;;;0.20;0.10;;;;;;;17.34;86.12;101405.09;21222530;27;20159;-72
2022/09/19 06:49:09;;;;;;;0.50;0.20;;;;;;;17.42;86.11;101412.53;21207060;27;20039;-72
2022/09/19 06:59:19;;;;;;;0.75;0.30;;;;;;;17.40;86.28;101428.84;21220924;27;20047;-72
2022/09/19 07:09:20;;;;;;;0.20;0.20;;;;;;;17.41;86.08;101441.31;21162278;27;20051;-72
2022/09/19 07:19:23;;;;;;;1.20;0.20;;;;;;;17.41;86.19;101454.78;21201994;27;20096;-72
2022/09/19 07:29:46;;;;;;;0.13;0.13;;;;;;;17.32;86.12;101436.66;21219030;27;20403;-72
2022/09/19 07:39:53;;;;;;;0.20;0.10;;;;;;;17.42;86.16;101455.63;21217200;27;20043;-72
2022/09/19 07:50:17;;;;;;;0.10;0.10;;;;;;;17.42;86.07;101461.88;21202689;27;20124;-72
2022/09/19 08:00:42;;;;;;;0.47;0.25;;;;;;;17.43;86.21;101481.56;21216781;27;20126;-73
2022/09/19 08:10:50;;;;;;;0.10;0.10;;;;;;;17.43;86.19;101485.13;21120261;27;20092;-72
2022/09/19 08:20:53;;;;;;;0.60;0.20;;;;;;;17.44;86.15;101499.41;21197104;27;20050;-72
2022/09/19 08:31:01;;;;;;;0.20;0.20;;;;;;;17.43;86.21;101493.19;21197064;27;20054;-72
2022/09/19 08:41:22;;;;;;;0.70;0.30;;;;;;;17.47;86.12;101496.50;21213305;27;20123;-72
2022/09/19 08:51:24;;;;;;;0.63;0.15;;;;;;;17.50;86.02;101502.50;21212132;27;20043;-72
2022/09/19 09:01:33;;;;;;;0.20;0.10;;;;;;;17.48;85.84;101499.06;21212384;27;20047;-72
2022/09/19 09:12:36;;;;;;;0.10;0.10;;;;;;;17.53;85.73;101504.94;21151643;27;20043;-72
2022/09/19 09:22:41;;;;;;;0.40;0.20;;;;;;;17.53;85.93;101499.56;21211225;27;20384;-72
2022/09/19 09:33:18;;;;;;;0.30;0.20;;;;;;;17.54;85.76;101509.34;21196743;27;20051;-72
2022/09/19 09:43:23;;;;;;;0.17;0.10;;;;;;;17.54;85.88;101503.97;21194148;27;20051;-72
2022/09/19 09:53:44;;;;;;;1.45;0.30;;;;;;;17.54;85.83;101492.38;21193748;27;20507;-72
2022/09/19 10:04:03;;;;;;;0.50;0.28;;;;;;;17.54;85.88;101514.75;21173971;27;20045;-72
2022/09/19 10:14:25;;;;;;;0.47;0.20;;;;;;;17.53;86.04;101518.41;20712137;28;20045;-72
2022/09/19 10:24:55;;;;;;;0.60;0.30;;;;;;;17.53;85.92;101513.03;20695566;28;20506;-72
2022/09/19 10:35:33;;;;;;;0.20;0.20;;;;;;;17.53;85.87;101522.94;20710026;28;20077;-72
2022/09/19 10:45:45;;;;;;;0.63;0.30;;;;;;;17.53;85.93;101569.56;20709393;28;20046;-72
2022/09/19 10:55:49;;;;;;;0.20;0.10;;;;;;;17.48;85.90;101552.91;20677449;28;20170;-72
2022/09/19 11:06:12;;;;;;;0.10;0.10;;;;;;;17.54;85.97;101551.59;20901366;27;20523;-72
2022/09/19 11:16:29;;;;;;;0.70;0.10;;;;;;;17.53;85.84;101550.72;21203399;27;20045;-73
2022/09/19 11:27:01;;;;;;;0.47;0.20;;;;;;;17.54;85.86;101535.44;21203080;27;20043;-72
2022/09/19 11:37:10;;;;;;;0.63;0.30;;;;;;;17.54;86.12;101538.97;21200853;27;20502;-72
2022/09/19 11:47:25;;;;;;;0.90;0.20;;;;;;;17.54;86.02;101541.66;21217119;27;20130;-72
2022/09/19 11:57:47;;;;;;;0.50;0.30;;;;;;;17.54;85.94;101533.59;21215894;27;20047;-72
2022/09/19 12:08:28;;;;;;;0.80;0.30;;;;;;;17.53;86.01;101556.09;21141759;27;20050;-72
2022/09/19 12:18:40;;;;;;;0.55;0.32;;;;;;;17.54;86.12;101560.50;21196231;27;20039;-72
2022/09/19 12:28:58;;;;;;;0.20;0.10;;;;;;;17.53;86.23;101569.56;21196865;27;20053;-72
2022/09/19 12:39:34;;;;;;;0.98;0.20;;;;;;;17.53;86.24;101566.88;21213528;27;20047;-72
2022/09/19 12:49:39;;;;;;;0.20;0.10;;;;;;;17.52;86.13;101562.47;21196044;27;20059;-72
2022/09/19 12:59:41;;;;;;;1.17;0.20;;;;;;;17.52;86.25;101543.63;21157192;27;20280;-72
2022/09/19 13:09:51;;;;;;;0.63;0.20;;;;;;;17.42;86.27;101517.53;21189129;27;20118;-73
2022/09/19 13:30:51;;;;;;;0.45;0.20;;;;;;;17.53;86.29;101544.50;21213647;27;20524;-72
2022/09/19 13:41:02;;;;;;;0.32;0.10;;;;;;;17.53;86.24;101560.66;21227340;27;20294;-72
2022/09/19 13:51:08;;;;;;;0.60;0.40;;;;;;;17.53;86.19;101566.03;21210434;27;20146;-72
2022/09/19 14:01:09;;;;;;;0.30;0.20;;;;;;;17.53;86.15;101566.88;21175570;27;20527;-72
2022/09/19 14:11:11;;;;;;;0.35;0.20;;;;;;;17.53;86.34;101571.41;21225970;27;20055;-72
2022/09/19 14:21:28;;;;;;;0.47;0.20;;;;;;;17.54;86.28;101584.75;21225702;27;20092;-72
2022/09/19 14:31:57;;;;;;;0.35;0.20;;;;;;;17.54;86.16;101579.34;21224948;27;20494;-72
2022/09/19 14:42:12;;;;;;;0.38;0.28;;;;;;;17.34;86.38;101555.81;21221925;27;20045;-72
2022/09/19 14:52:18;;;;;;;;;;;;;;;17.53;86.03;101603.72;21205476;27;20043;-72
2022/09/19 15:02:30;;;;;;;0.47;0.23;;;;;;;17.52;86.29;101600.16;21149592;27;20442;-72
2022/09/19 15:12:37;;;;;;;1.20;0.47;;;;;;;17.35;86.37;101566.44;21203927;27;20403;-72
2022/09/19 15:22:51;;;;;;;0.20;0.10;;;;;;;17.51;86.33;101603.81;21219501;27;20111;-72
2022/09/19 15:32:59;;;;;;;0.85;0.30;;;;;;;17.52;86.39;101596.63;21218347;27;20529;-72
2022/09/19 15:43:03;;;;;;;1.63;0.40;;;;;;;17.52;86.55;101610.06;21219734;27;20043;-72
2022/09/19 15:53:10;;;;;;;0.33;0.10;;;;;;;17.52;86.25;101607.38;21216653;27;20065;-72
2022/09/19 16:03:18;;;;;;;0.40;0.25;;;;;;;17.39;86.19;101594.00;21115812;27;20051;-72
2022/09/19 16:13:37;;;;;;;0.17;0.17;;;;;;;17.53;86.19;101634.19;21216148;27;20051;-72
2022/09/19 16:23:48;;;;;;;0.20;0.20;;;;;;;17.34;86.16;101605.09;21214741;27;20130;-72
2022/09/19 16:33:57;;;;;;;0.88;0.10;;;;;;;17.51;86.53;101630.75;21215745;27;20049;-71
2022/09/19 16:44:01;;;;;;;0.10;0.10;;;;;;;17.51;86.37;101638.81;21214941;27;20047;-72
2022/09/19 16:54:11;;;;;;;0.45;0.30;;;;;;;17.25;86.24;101601.28;21158960;27;20107;-72
2022/09/19 17:04:18;;;;;;;0.35;0.20;;;;;;;17.51;86.41;101637.97;21211560;27;20477;-72
2022/09/19 17:14:20;;;;;;;0.88;0.20;;;;;;;17.50;86.40;101660.50;21213327;27;20129;-72
2022/09/19 17:24:22;;;;;;;0.35;0.20;;;;;;;17.48;86.47;101660.59;21212705;27;20055;-72
2022/09/19 17:34:24;;;;;;;0.30;0.15;;;;;;;17.42;86.43;101661.06;21212508;27;20055;-72
2022/09/19 17:44:25;;;;;;;0.73;0.30;;;;;;;17.47;86.37;101675.03;21211735;27;20047;-72
2022/09/19 17:54:28;;;;;;;0.32;0.30;;;;;;;17.48;86.30;101676.75;21127500;27;20039;-72
2022/09/19 18:04:30;;;;;;;0.20;0.10;;;;;;;17.46;86.35;101681.38;21211704;27;20142;-72
2022/09/19 18:14:31;;;;;;;0.65;0.13;;;;;;;17.45;86.31;101685.03;21211116;27;20092;-72
2022/09/19 18:24:34;;;;;;;0.63;0.20;;;;;;;17.27;86.44;101670.28;21222240;27;20043;-72
2022/09/19 18:34:35;;;;;;;0.32;0.20;;;;;;;17.45;86.52;101703.88;21223719;27;20053;-72
2022/09/19 18:44:37;;;;;;;1.65;0.30;;;;;;;17.36;86.29;101696.50;21224101;27;20039;-72
2022/09/19 18:54:38;;;;;;;0.45;0.20;;;;;;;17.44;86.33;101721.00;21170981;27;20435;-75
2022/09/19 19:04:40;;;;;;;0.50;0.20;;;;;;;17.43;86.31;101722.00;21220985;27;20046;-75
2022/09/19 19:14:42;;;;;;;0.65;0.20;;;;;;;17.43;86.24;101732.75;21220153;27;20049;-75
2022/09/19 19:24:43;;;;;;;0.98;0.30;;;;;;;17.44;86.38;101729.09;21220081;27;20104;-76
2022/09/19 19:34:45;;;;;;;0.10;0.10;;;;;;;17.23;86.49;101699.22;21218880;27;20483;-74
2022/09/19 19:44:46;;;;;;;0.10;0.10;;;;;;;17.41;86.23;101723.94;21218591;27;20079;-74
2022/09/19 19:54:48;;;;;;;0.35;0.20;;;;;;;17.41;86.23;101740.09;21145439;27;20039;-75
2022/09/19 20:04:49;;;;;;;0.45;0.40;;;;;;;17.40;86.40;101728.44;21217865;27;20047;-75
2022/09/19 20:14:51;;;;;;;0.60;0.20;;;;;;;17.40;86.17;101732.97;21215449;27;20455;-75
2022/09/19 20:24:52;;;;;;;0.30;0.20;;;;;;;17.39;86.16;101734.81;21215467;27;20055;-75
2022/09/19 20:34:55;;;;;;;1.02;0.20;;;;;;;17.38;86.43;101738.47;21215568;27;20111;-75
2022/09/19 20:44:56;;;;;;;0.32;0.22;;;;;;;17.38;86.33;101743.00;21213970;27;20035;-75
2022/09/19 20:54:58;;;;;;;0.10;0.10;;;;;;;17.39;86.22;101752.78;21120289;27;20556;-75
2022/09/19 21:04:59;;;;;;;0.30;0.20;;;;;;;17.37;86.25;101755.59;21213530;27;20407;-75
2022/09/19 21:15:01;;;;;;;0.55;0.22;;;;;;;17.37;86.23;101760.97;21211699;27;20061;-76
2022/09/19 21:25:03;;;;;;;0.75;0.28;;;;;;;17.21;86.25;101723.53;21211387;27;20084;-75
2022/09/19 21:35:05;;;;;;;0.20;0.20;;;;;;;17.36;86.15;101747.63;21193692;27;20043;-74
2022/09/19 21:45:07;;;;;;;0.30;0.20;;;;;;;17.36;86.15;101763.78;21179797;27;20058;-75
2022/09/19 21:55:08;;;;;;;0.20;0.10;;;;;;;17.35;86.42;101773.69;21134819;27;20054;-74
2022/09/19 22:05:10;;;;;;;0.20;0.20;;;;;;;17.21;86.33;101755.84;21227641;27;20043;-74
2022/09/19 22:15:15;;;;;;;0.17;0.17;;;;;;;17.36;86.30;101771.88;21226887;27;20040;-75
2022/09/19 22:25:17;;;;;;;0.38;0.20;;;;;;;17.34;86.27;101765.72;21226416;27;20108;-75
2022/09/19 22:35:22;;;;;;;0.50;0.10;;;;;;;17.25;86.24;101753.78;21225175;27;20138;-74
2022/09/19 22:45:24;;;;;;;0.50;0.30;;;;;;;17.34;86.10;101769.28;21176325;27;20059;-74
2022/09/19 22:55:25;;;;;;;0.22;0.20;;;;;;;17.13;86.09;101736.69;21188231;27;20054;-74
2022/09/19 23:05:27;;;;;;;0.17;0.15;;;;;;;17.34;86.02;101776.50;21222593;27;20071;-75
2022/09/19 23:15:30;;;;;;;0.30;0.20;;;;;;;17.33;86.21;101781.00;21220323;27;20050;-74
2022/09/19 23:25:31;;;;;;;0.47;0.30;;;;;;;17.16;86.11;101758.00;21221112;27;20051;-75
2022/09/19 23:35:33;;;;;;;0.10;0.10;;;;;;;17.32;86.12;101784.66;21218783;27;20584;-75
2022/09/19 23:45:34;;;;;;;1.15;0.30;;;;;;;17.32;86.09;101775.75;21165991;27;20040;-75
2022/09/19 23:55:36;;;;;;;0.30;0.30;;;;;;;17.12;85.93;101744.91;21218172;27;20047;-75
